Saint John, ND (58369)

12:16 AM CST on February 20, 2017 (GMT -0600)
Rolla | | Change Station

Elev 1824 ft 48.88 °N, 99.62 °W | Updated 21 minutes ago

Overcast
Overcast
32 °F
Feels Like 23 °F
N
12
Wind Variable Wind from SSW

Today
High -- | Low -- °F
--% Chance of Precip.
Yesterday
High -- | Low -- °F
Precip. -- in
Pressure 29.55 in
Visibility 0.2 miles
Clouds Overcast 200 ft
Windchill 23 °F
Dew Point 32 °F
Humidity 100%
Rainfall 0.00 in
Snow Depth Not available.
7:37 AM 6:08 PM
Last Quarter, 37% visible
METAR K06D 200555Z AUTO 21010KT 1/4SM FG OVC002 00/00 A2955 RMK AO2
Pressure 29.55 in
Visibility 0.2 miles
Clouds Overcast 200 ft
Windchill 23 °F
Dew Point 32 °F
Humidity 100%
Rainfall 0.00 in
Snow Depth Not available.
7:37 AM 6:08 PM
Last Quarter, 37% visible
METAR K06D 200555Z AUTO 21010KT 1/4SM FG OVC002 00/00 A2955 RMK AO2

Get Your Daily Forecast Email!

Thanks for signing up!

Be on the lookout for a verification email in your inbox.

You'll start receiving the daily forecast at 8 AM.

×

10-Day Weather Forecast

Almanac

Astronomy

Feb. 20, 2017 Rise Set
Actual Time
Civil Twilight
Nautical Twilight
Astronomical Twilight
Moon
Length of Visible Light
Length of Day
Tomorrow will be .
, % of the Moon is Illuminated

Today's Extremes

State Highs State Lows

Community

WunderPhotos

Upload Photos

1,962,540 photos uploaded!

WunderBlog® & News

Nearby

Air Quality

  Air Quality AQ Index Pollutant
Not available.

Snow Depth

Station Depth Elevation

Earthquake Activity

City Distance Mag. Time & Date
Minimum magnitude displayed is 2.5.

Coastal Water Temperatures

Place Temperature

Stations

Nearby Weather Stations

Station Location Temp. Windchill Dew Point Humidity Wind Precip. Elev Updated Type
                   

Watches & Warnings

There are currently no watches in effect.